地図

経路データ

SID SEASON NUMBER BASIN SUBBASIN NAME ISO_TIME NATURE LAT LON WMO_WIND WMO_PRES WMO_AGENCY TRACK_TYPE DIST2LAND LANDFALL IFLAG USA_AGENCY USA_ATCF_ID USA_LAT USA_LON USA_RECORD USA_STATUS USA_WIND USA_PRES USA_SSHS USA_R34_NE USA_R34_SE USA_R34_SW USA_R34_NW USA_R50_NE USA_R50_SE USA_R50_SW USA_R50_NW USA_R64_NE USA_R64_SE USA_R64_SW USA_R64_NW USA_POCI USA_ROCI USA_RMW USA_EYE TOKYO_LAT TOKYO_LON TOKYO_GRADE TOKYO_WIND TOKYO_PRES TOKYO_R50_DIR TOKYO_R50_LONG TOKYO_R50_SHORT TOKYO_R30_DIR TOKYO_R30_LONG TOKYO_R30_SHORT TOKYO_LAND CMA_LAT CMA_LON CMA_CAT CMA_WIND CMA_PRES HKO_LAT HKO_LON HKO_CAT HKO_WIND HKO_PRES NEWDELHI_LAT NEWDELHI_LON NEWDELHI_GRADE NEWDELHI_WIND NEWDELHI_PRES NEWDELHI_CI NEWDELHI_DP NEWDELHI_POCI REUNION_LAT REUNION_LON REUNION_TYPE REUNION_WIND REUNION_PRES REUNION_TNUM REUNION_CI REUNION_RMW REUNION_R34_NE REUNION_R34_SE REUNION_R34_SW REUNION_R34_NW REUNION_R50_NE REUNION_R50_SE REUNION_R50_SW REUNION_R50_NW REUNION_R64_NE REUNION_R64_SE REUNION_R64_SW REUNION_R64_NW BOM_LAT BOM_LON BOM_TYPE BOM_WIND BOM_PRES BOM_TNUM BOM_CI BOM_RMW BOM_R34_NE BOM_R34_SE BOM_R34_SW BOM_R34_NW BOM_R50_NE BOM_R50_SE BOM_R50_SW BOM_R50_NW BOM_R64_NE BOM_R64_SE BOM_R64_SW BOM_R64_NW BOM_ROCI BOM_POCI BOM_EYE BOM_POS_METHOD BOM_PRES_METHOD NADI_LAT NADI_LON NADI_CAT NADI_WIND NADI_PRES WELLINGTON_LAT WELLINGTON_LON WELLINGTON_WIND WELLINGTON_PRES DS824_LAT DS824_LON DS824_STAGE DS824_WIND DS824_PRES TD9636_LAT TD9636_LON TD9636_STAGE TD9636_WIND TD9636_PRES TD9635_LAT TD9635_LON TD9635_WIND TD9635_PRES TD9635_ROCI NEUMANN_LAT NEUMANN_LON NEUMANN_CLASS NEUMANN_WIND NEUMANN_PRES MLC_LAT MLC_LON MLC_CLASS MLC_WIND MLC_PRES USA_GUST BOM_GUST BOM_GUST_PER REUNION_GUST REUNION_GUST_PER USA_SEAHGT USA_SEARAD_NE USA_SEARAD_SE USA_SEARAD_SW USA_SEARAD_NW STORM_SPEED STORM_DIR
1976318N12066 1976 135 NI AS NOT_NAMED 1976-11-13 00:00:00 TS 11.9000 65.6000 main 966 966 O________OO___ jtwc_io IO111976 11.9000 65.6000 -1 11.9000 65.6000 TC 11.9000 65.6000 1 1 268
1976318N12066 1976 135 NI AS NOT_NAMED 1976-11-13 03:00:00 TS 11.8986 65.5627 main 966 966 P________PP___ IO111976 11.8925 65.5800 -1 11.8925 65.5800 TC 11.9107 65.5281 1 1 274
1976318N12066 1976 135 NI AS NOT_NAMED 1976-11-13 06:00:00 TS 11.9090 65.4750 main 976 976 O________OP___ jtwc_io IO111976 11.9000 65.5000 -1 11.9000 65.5000 TC 11.9271 65.4249 1 3 279
1976318N12066 1976 135 NI AS NOT_NAMED 1976-11-13 09:00:00 TS 11.9416 65.2931 main 996 996 P________PP___ IO111976 11.9349 65.3100 -1 11.9349 65.3100 TC 11.9550 65.2593 1 5 281
1976318N12066 1976 135 NI AS NOT_NAMED 1976-11-13 12:00:00 TS 12.0000 65.0000 main 1022 1022 O________OO___ jtwc_io IO111976 12.0000 65.0000 -1 12.0000 65.0000 TC 25 12.0000 65.0000 1 7 282
1976318N12066 1976 135 NI AS NOT_NAMED 1976-11-13 15:00:00 TS 12.0839 64.5960 main 1057 1024 P________PP___ IO111976 12.0925 64.5800 -1 12.0925 64.5800 TC 25 12.0666 64.6281 1 9 282
1976318N12066 1976 135 NI AS NOT_NAMED 1976-11-13 18:00:00 TS 12.1852 64.1250 main 1016 980 O________OP___ jtwc_io IO111976 12.2000 64.1000 -1 12.2000 64.1000 TC 25 12.1555 64.1749 1 9 282
1976318N12066 1976 135 NI AS NOT_NAMED 1976-11-13 21:00:00 TS 12.2788 63.6564 main 980 937 P________PP___ IO111976 12.2850 63.6424 -1 12.2850 63.6424 TC 25 12.2666 63.6843 1 9 283
1976318N12066 1976 135 NI AS NOT_NAMED 1976-11-14 00:00:00 TS 12.4000 63.2000 main 937 893 O________OO___ jtwc_io IO111976 12.4000 63.2000 -1 12.4000 63.2000 TC 25 12.4000 63.2000 1 9 290
1976318N12066 1976 135 NI AS NOT_NAMED 1976-11-14 03:00:00 TS 12.5848 62.7849 main 893 850 P________PP___ IO111976 12.5924 62.7925 -1 12.5924 62.7925 TC 25 12.5696 62.7696 1 9 296
1976318N12066 1976 135 NI AS NOT_NAMED 1976-11-14 06:00:00 TS 12.7858 62.3851 main 850 814 O________OP___ jtwc_io IO111976 12.8000 62.4000 -1 12.8000 62.4000 TC 25 12.7574 62.3553 1 9 295
1976318N12066 1976 135 NI AS NOT_NAMED 1976-11-14 09:00:00 TS 12.9572 61.9778 main 807 772 P________PP___ IO111976 12.9650 61.9850 -1 12.9650 61.9850 TC 25 12.9415 61.9634 1 8 292
1976318N12066 1976 135 NI AS NOT_NAMED 1976-11-14 12:00:00 TS 13.1000 61.6000 main 772 740 O________OO___ jtwc_io IO111976 13.1000 61.6000 -1 13.1000 61.6000 TC 25 13.1000 61.6000 1 7 290
1976318N12066 1976 135 NI AS NOT_NAMED 1976-11-14 15:00:00 TS 13.2125 61.2749 main 740 709 P________PP___ IO111976 13.2149 61.2850 -1 13.2149 61.2850 TC 25 13.2076 61.2548 1 6 288
1976318N12066 1976 135 NI AS NOT_NAMED 1976-11-14 18:00:00 TS 13.2958 60.9799 main 709 676 O________OP___ jtwc_io IO111976 13.3000 61.0000 -1 13.3000 61.0000 TC 25 13.2873 60.9397 1 6 284
1976318N12066 1976 135 NI AS NOT_NAMED 1976-11-14 21:00:00 TS 13.3544 60.6799 main 678 645 P________PP___ IO111976 13.3575 60.6925 -1 13.3575 60.6925 TC 25 13.3483 60.6548 1 6 280
1976318N12066 1976 135 NI AS NOT_NAMED 1976-11-15 00:00:00 TS 13.4000 60.4000 main 645 615 O________OO___ jtwc_io IO111976 13.4000 60.4000 -1 13.4000 60.4000 TC 25 13.4000 60.4000 1 5 281
1976318N12066 1976 135 NI AS NOT_NAMED 1976-11-15 03:00:00 TS 13.4551 60.1312 main 615 593 P________PP___ IO111976 13.4500 60.1275 -1 13.4500 60.1275 TC 25 13.4652 60.1387 1 5 283
1976318N12066 1976 135 NI AS NOT_NAMED 1976-11-15 06:00:00 TS 13.5075 59.9033 main 593 574 O________OP___ jtwc_io IO111976 13.5000 59.9000 -1 13.5000 59.9000 TC 25 13.5224 59.9100 1 4 285
1976318N12066 1976 135 NI AS NOT_NAMED 1976-11-15 09:00:00 TS 13.5611 59.7171 main 574 563 P________PP___ IO111976 13.5575 59.7125 -1 13.5575 59.7125 TC 25 13.5684 59.7262 1 3 287
1976318N12066 1976 135 NI AS NOT_NAMED 1976-11-15 12:00:00 TS 13.6000 59.6000 main 563 563 O________OO___ jtwc_io IO111976 13.6000 59.6000 -1 13.6000 59.6000 TC 25 13.6000 59.6000 1 1 289
1976318N12066 1976 135 NI AS NOT_NAMED 1976-11-15 15:00:00 TS 13.6097 59.5780 main 563 563 P________PP___ IO111976 13.6075 59.5775 -1 13.6075 59.5775 TC 25 13.6142 59.5790 1 0 0
1976318N12066 1976 135 NI AS NOT_NAMED 1976-11-15 18:00:00 TS 13.6049 59.6025 main 563 563 O________OP___ jtwc_io IO111976 13.6000 59.6000 -1 13.6000 59.6000 TC 25 13.6148 59.6074 1 0 100
1976318N12066 1976 135 NI AS NOT_NAMED 1976-11-15 21:00:00 TS 13.6026 59.6257 main 563 563 P________PP___ IO111976 13.6000 59.6225 -1 13.6000 59.6225 TC 25 13.6080 59.6322 1 0 0
1976318N12066 1976 135 NI AS NOT_NAMED 1976-11-16 00:00:00 TS 13.6000 59.6000 main 563 553 O________OO___ jtwc_io IO111976 13.6000 59.6000 -1 13.6000 59.6000 TC 25 13.6000 59.6000 1 1 268
1976318N12066 1976 135 NI AS NOT_NAMED 1976-11-16 03:00:00 TS 13.5986 59.4871 main 553 532 P________PP___ IO111976 13.6000 59.4950 -1 13.6000 59.4950 TC 25 13.5959 59.4713 1 3 270
1976318N12066 1976 135 NI AS NOT_NAMED 1976-11-16 06:00:00 TS 13.5985 59.2867 main 532 500 O________OP___ jtwc_io IO111976 13.6000 59.3000 -1 13.6000 59.3000 TC 25 13.5954 59.2600 1 5 270
1976318N12066 1976 135 NI AS NOT_NAMED 1976-11-16 09:00:00 TS 13.5992 59.0129 main 500 468 P________PP___ IO111976 13.6001 59.0225 -1 13.6001 59.0225 TC 25 13.5973 58.9938 1 6 270
1976318N12066 1976 135 NI AS NOT_NAMED 1976-11-16 12:00:00 TS 13.6000 58.7000 main 468 O________OO___ jtwc_io IO111976 13.6000 58.7000 -1 13.6000 58.7000 TC 25 13.6000 58.7000 6 6 270

IBTrACS Databaseについて

本データベースは、米国NOAAが公開する1842年以降の世界の熱帯低気圧のベストトラックデータアーカイブInternational Best Track Archive for Climate Stewardship (IBTrACS)を、ウェブで閲覧しやすい形式に変換したものです。

最終更新日:2021-10-21